Chicago Bmc, Illinois
Current Conditions -  °F | °C
As of 3:51 PM on Tuesday 25 Nov 2014 (Local Time) from KORD Reporting Station
Few Clouds Few Clouds  
Wind Chill: -11°   Ceiling: Unl
Heat Index: -5°   Visibility: 10mi
Dew Point: -9°   Wind: 12mph
Humidity: 74%   Direction: 270°W
Pressure: 30.13"   Gusts: NA
Location:  42.0275°N, 87.808°W
Report Text: KORD 252151Z 27010KT 10SM FEW021 M05/M09 A3013 RMK AO2 SLP213 T10501089
Loading
Personal Weather Stations






























Interactive Weather Map New forecast layout! Learn more

10-Day Weather Forecast

Advertisements
Track Severe Weather on mobile